createdAt,value
2022-09-20T00:00:03.930Z,0.00
2022-09-20T00:01:03.986Z,0.00
2022-09-20T00:02:03.913Z,0.00
2022-09-20T00:03:03.892Z,0.00
2022-09-20T00:04:03.904Z,0.00
2022-09-20T00:05:03.952Z,0.00
2022-09-20T00:06:03.860Z,0.00
2022-09-20T00:07:03.843Z,0.00
2022-09-20T00:08:03.864Z,0.00
2022-09-20T00:09:03.819Z,0.00
2022-09-20T00:10:03.822Z,0.00
2022-09-20T00:11:03.797Z,0.00
2022-09-20T00:12:03.784Z,0.00
2022-09-20T00:13:03.769Z,0.00
2022-09-20T00:14:03.756Z,0.00
2022-09-20T00:15:03.750Z,0.00
2022-09-20T00:16:03.769Z,0.00
2022-09-20T00:17:03.777Z,0.00
2022-09-20T00:18:03.703Z,0.00
2022-09-20T00:19:03.701Z,0.00
2022-09-20T00:20:03.682Z,0.00
2022-09-20T00:21:03.674Z,0.00
2022-09-20T00:22:03.668Z,0.00
2022-09-20T00:23:03.640Z,0.00
2022-09-20T00:24:03.640Z,0.00
2022-09-20T00:25:03.611Z,0.00
2022-09-20T00:26:03.614Z,0.00
2022-09-20T00:27:03.604Z,0.00
2022-09-20T00:28:03.589Z,0.00
2022-09-20T00:29:03.579Z,0.00
2022-09-20T00:30:03.547Z,0.00
2022-09-20T00:31:03.542Z,0.00
2022-09-20T00:32:03.653Z,0.00
2022-09-20T00:33:03.529Z,0.00
2022-09-20T00:34:03.511Z,0.00
2022-09-20T00:35:03.507Z,0.00
2022-09-20T00:36:03.494Z,0.00
2022-09-20T00:37:03.490Z,0.00
2022-09-20T00:38:03.444Z,0.00
2022-09-20T00:39:03.447Z,0.00
2022-09-20T00:40:03.484Z,0.00
2022-09-20T00:41:03.414Z,0.00
2022-09-20T00:42:03.397Z,0.00
2022-09-20T00:43:03.383Z,0.00
2022-09-20T00:44:03.369Z,0.00
2022-09-20T00:45:03.360Z,0.00
2022-09-20T00:46:03.454Z,0.00
2022-09-20T00:47:03.334Z,0.00
2022-09-20T00:48:03.324Z,0.00
2022-09-20T00:49:03.304Z,0.00
2022-09-20T00:50:03.310Z,0.00
2022-09-20T00:51:03.292Z,0.00
2022-09-20T00:52:03.286Z,0.00
2022-09-20T00:53:03.259Z,0.00
2022-09-20T00:54:03.248Z,0.00
2022-09-20T00:55:03.246Z,0.00
2022-09-20T00:56:03.226Z,0.00
2022-09-20T00:57:03.210Z,0.00
2022-09-20T00:58:03.205Z,0.00
2022-09-20T00:59:03.180Z,0.00
2022-09-20T01:00:03.182Z,0.00
2022-09-20T01:01:03.216Z,0.00
2022-09-20T01:02:03.264Z,0.00
2022-09-20T01:03:03.127Z,0.00
2022-09-20T01:04:03.137Z,0.00
2022-09-20T01:05:03.125Z,0.00
2022-09-20T01:06:03.089Z,0.00
2022-09-20T01:07:03.081Z,0.00
2022-09-20T01:08:03.074Z,0.00
2022-09-20T01:09:03.063Z,0.00
2022-09-20T01:10:03.048Z,0.00
2022-09-20T01:11:03.023Z,0.00
2022-09-20T01:12:03.028Z,0.00
2022-09-20T01:13:03.004Z,0.00
2022-09-20T01:14:03.014Z,0.00
2022-09-20T01:15:02.983Z,0.00
2022-09-20T01:16:02.985Z,0.00
2022-09-20T01:17:02.955Z,0.00
2022-09-20T01:18:02.945Z,0.00
2022-09-20T01:19:02.935Z,0.00
2022-09-20T01:20:02.914Z,0.00
2022-09-20T01:21:02.916Z,0.00
2022-09-20T01:22:02.901Z,0.00
2022-09-20T01:23:02.885Z,0.00
2022-09-20T01:24:02.865Z,0.00
2022-09-20T01:25:02.848Z,0.00
2022-09-20T01:26:02.841Z,0.00
2022-09-20T01:27:02.823Z,0.00
2022-09-20T01:28:02.839Z,0.00
2022-09-20T01:29:02.804Z,0.00
2022-09-20T01:30:02.786Z,0.00
2022-09-20T01:31:02.787Z,0.00
2022-09-20T01:32:02.866Z,0.00
2022-09-20T01:33:02.753Z,0.00
2022-09-20T01:34:02.762Z,0.00
2022-09-20T01:35:02.725Z,0.00
2022-09-20T01:36:02.709Z,0.00
2022-09-20T01:37:02.692Z,0.00
2022-09-20T01:38:02.687Z,0.00
2022-09-20T01:39:02.677Z,0.00
2022-09-20T01:40:02.719Z,0.00
2022-09-20T01:41:02.657Z,0.00
2022-09-20T01:42:02.644Z,0.00
2022-09-20T01:43:02.624Z,0.00
2022-09-20T01:44:02.611Z,0.00
2022-09-20T01:45:02.596Z,0.00
2022-09-20T01:46:02.692Z,0.00
2022-09-20T01:47:02.575Z,0.00
2022-09-20T01:48:02.561Z,0.00
2022-09-20T01:49:02.558Z,0.00
2022-09-20T01:50:02.535Z,0.00
2022-09-20T01:51:02.529Z,0.00
2022-09-20T01:52:02.525Z,0.00
2022-09-20T01:53:02.497Z,0.00
2022-09-20T01:54:02.494Z,0.00
2022-09-20T01:55:02.485Z,0.00
2022-09-20T01:56:02.469Z,0.00
2022-09-20T01:57:02.446Z,0.00
2022-09-20T01:58:02.459Z,0.00
2022-09-20T01:59:22.657Z,0.00
2022-09-20T02:00:02.443Z,0.00
2022-09-20T02:01:02.454Z,0.00
2022-09-20T02:02:02.460Z,0.00
2022-09-20T02:03:02.378Z,0.00
2022-09-20T02:04:02.471Z,0.00
2022-09-20T02:05:02.348Z,0.00
2022-09-20T02:06:02.338Z,0.00
2022-09-20T02:07:02.317Z,0.00
2022-09-20T02:08:02.324Z,0.00
2022-09-20T02:09:02.296Z,0.00
2022-09-20T02:10:02.302Z,0.00
2022-09-20T02:11:02.272Z,0.00
2022-09-20T02:12:02.283Z,0.00
2022-09-20T02:13:02.249Z,0.00
2022-09-20T02:14:02.235Z,0.00
2022-09-20T02:15:02.233Z,0.00
2022-09-20T02:16:02.382Z,0.00
2022-09-20T02:17:02.280Z,0.00
2022-09-20T02:18:02.186Z,0.00
2022-09-20T02:19:02.170Z,0.00
2022-09-20T02:20:02.207Z,0.00
2022-09-20T02:21:02.146Z,0.00
2022-09-20T02:22:02.145Z,0.00
2022-09-20T02:23:02.148Z,0.00
2022-09-20T02:24:02.124Z,0.00
2022-09-20T02:25:02.179Z,0.00
2022-09-20T02:26:02.085Z,0.00
2022-09-20T02:27:02.082Z,0.00
2022-09-20T02:28:02.074Z,0.00
2022-09-20T02:29:02.046Z,0.00
2022-09-20T02:30:03.011Z,0.00
2022-09-20T02:31:02.018Z,0.00
2022-09-20T02:32:02.054Z,0.00
2022-09-20T02:33:01.995Z,0.00
2022-09-20T02:34:02.003Z,0.00
2022-09-20T02:35:02.118Z,0.00
2022-09-20T02:36:01.965Z,0.00
2022-09-20T02:37:01.946Z,0.00
2022-09-20T02:38:01.930Z,0.00
2022-09-20T02:39:01.931Z,0.00
2022-09-20T02:40:01.980Z,0.00
2022-09-20T02:41:01.904Z,0.00
2022-09-20T02:42:01.888Z,0.00
2022-09-20T02:43:01.881Z,0.00
2022-09-20T02:44:01.854Z,0.00
2022-09-20T02:45:02.120Z,0.00
2022-09-20T02:46:01.888Z,0.00
2022-09-20T02:47:01.820Z,0.00
2022-09-20T02:48:01.806Z,0.00
2022-09-20T02:49:01.804Z,0.00
2022-09-20T02:50:02.512Z,0.00
2022-09-20T02:51:01.816Z,0.00
2022-09-20T02:52:01.773Z,0.00
2022-09-20T02:53:01.742Z,0.00
2022-09-20T02:54:01.734Z,0.00
2022-09-20T02:55:01.864Z,0.00
2022-09-20T02:56:01.705Z,0.00
2022-09-20T02:57:01.717Z,0.00
2022-09-20T02:58:01.701Z,0.00
2022-09-20T02:59:01.662Z,0.00
2022-09-20T03:00:01.657Z,0.00
2022-09-20T03:01:01.681Z,0.00
2022-09-20T03:02:01.667Z,0.00
2022-09-20T03:03:01.616Z,0.00
2022-09-20T03:04:01.628Z,0.00
2022-09-20T03:05:01.597Z,0.00
2022-09-20T03:06:01.578Z,0.00
2022-09-20T03:07:01.582Z,0.00
2022-09-20T03:08:03.146Z,0.00
2022-09-20T03:09:01.539Z,0.00
2022-09-20T03:10:01.540Z,0.00
2022-09-20T03:11:01.528Z,0.00
2022-09-20T03:12:01.504Z,0.00
2022-09-20T03:13:01.496Z,0.00
2022-09-20T03:14:01.477Z,0.00
2022-09-20T03:15:01.479Z,0.00
2022-09-20T03:16:01.475Z,0.00
2022-09-20T03:17:01.465Z,0.00
2022-09-20T03:18:01.448Z,0.00
2022-09-20T03:19:01.413Z,0.00
2022-09-20T03:20:01.400Z,0.00
2022-09-20T03:21:01.397Z,0.00
2022-09-20T03:22:01.401Z,0.00
2022-09-20T03:23:01.359Z,0.00
2022-09-20T03:24:01.358Z,0.00
2022-09-20T03:25:01.344Z,0.00
2022-09-20T03:26:01.322Z,0.00
2022-09-20T03:27:01.316Z,0.00
2022-09-20T03:28:01.277Z,22.50
2022-09-20T03:29:01.230Z,0.00
2022-09-20T03:30:01.271Z,0.00
2022-09-20T03:31:01.262Z,0.00
2022-09-20T03:32:01.304Z,0.00
2022-09-20T03:33:01.252Z,0.00
2022-09-20T03:34:01.232Z,0.00
2022-09-20T03:35:01.208Z,0.00
2022-09-20T03:36:01.195Z,0.00
2022-09-20T03:37:01.184Z,0.00
2022-09-20T03:38:01.170Z,0.00
2022-09-20T03:39:01.162Z,0.00
2022-09-20T03:40:01.199Z,0.00
2022-09-20T03:41:01.136Z,0.00
2022-09-20T03:42:01.124Z,0.00
2022-09-20T03:43:01.122Z,0.00
2022-09-20T03:44:01.100Z,0.00
2022-09-20T03:45:01.088Z,0.00
2022-09-20T03:46:01.105Z,0.00
2022-09-20T03:47:01.065Z,0.00
2022-09-20T03:48:01.064Z,0.00
2022-09-20T03:49:01.046Z,0.00
2022-09-20T03:50:01.027Z,0.00
2022-09-20T03:51:01.010Z,0.00
2022-09-20T03:52:01.014Z,0.00
2022-09-20T03:53:00.991Z,0.00
2022-09-20T03:54:00.976Z,0.00
2022-09-20T03:55:00.962Z,0.00
2022-09-20T03:56:00.953Z,0.00
2022-09-20T03:57:00.996Z,0.00
2022-09-20T03:58:00.935Z,0.00
2022-09-20T03:59:00.927Z,0.00
2022-09-20T04:00:00.900Z,0.00
2022-09-20T04:01:00.962Z,0.00
2022-09-20T04:02:00.940Z,0.00
2022-09-20T04:03:00.862Z,0.00
2022-09-20T04:04:00.858Z,0.00
2022-09-20T04:05:00.852Z,0.00
2022-09-20T04:06:00.834Z,0.00
2022-09-20T04:07:00.811Z,0.00
2022-09-20T04:08:00.819Z,0.00
2022-09-20T04:09:00.784Z,0.00
2022-09-20T04:10:00.798Z,0.00
2022-09-20T04:11:00.762Z,0.00
2022-09-20T04:12:00.754Z,0.00
2022-09-20T04:13:00.742Z,0.00
2022-09-20T04:14:00.732Z,0.00
2022-09-20T04:15:00.711Z,0.00
2022-09-20T04:16:00.714Z,0.00
2022-09-20T04:17:00.735Z,0.00
2022-09-20T04:18:00.678Z,0.00
2022-09-20T04:19:00.676Z,0.00
2022-09-20T04:20:00.651Z,0.00
2022-09-20T04:21:00.642Z,0.00
2022-09-20T04:22:00.642Z,0.00
2022-09-20T04:23:00.613Z,0.00
2022-09-20T04:24:00.596Z,0.00
2022-09-20T04:25:00.593Z,0.00
2022-09-20T04:26:00.578Z,0.00
2022-09-20T04:27:00.567Z,0.00
2022-09-20T04:28:00.555Z,0.00
2022-09-20T04:29:00.535Z,0.00
2022-09-20T04:30:00.528Z,0.00
2022-09-20T04:31:00.512Z,0.00
2022-09-20T04:32:00.573Z,0.00
2022-09-20T04:33:00.486Z,0.00
2022-09-20T04:34:00.490Z,0.00
2022-09-20T04:35:00.463Z,0.00
2022-09-20T04:36:00.458Z,0.00
2022-09-20T04:37:00.435Z,0.00
2022-09-20T04:38:00.443Z,0.00
2022-09-20T04:39:00.429Z,0.00
2022-09-20T04:40:00.499Z,0.00
2022-09-20T04:41:00.391Z,0.00
2022-09-20T04:42:00.373Z,0.00
2022-09-20T04:43:00.361Z,0.00
2022-09-20T04:44:00.358Z,0.00
2022-09-20T04:45:00.338Z,0.00
2022-09-20T04:46:00.415Z,0.00
2022-09-20T04:47:00.315Z,0.00
2022-09-20T04:48:00.307Z,0.00
2022-09-20T04:49:00.284Z,0.00
2022-09-20T04:50:00.268Z,0.00
2022-09-20T04:51:00.267Z,0.00
2022-09-20T04:52:00.271Z,0.00
2022-09-20T04:53:00.239Z,0.00
2022-09-20T04:54:00.225Z,0.00
2022-09-20T04:55:00.207Z,0.00
2022-09-20T04:56:00.223Z,0.00
2022-09-20T04:57:00.213Z,0.00
2022-09-20T04:58:00.183Z,0.00
2022-09-20T04:59:00.110Z,0.00
2022-09-20T05:00:00.182Z,0.00
2022-09-20T05:01:00.198Z,0.00
2022-09-20T05:02:00.229Z,0.00
2022-09-20T05:03:00.074Z,0.00
2022-09-20T05:04:00.062Z,0.00
2022-09-20T05:05:00.055Z,0.00
2022-09-20T05:06:00.026Z,0.00
2022-09-20T05:07:00.018Z,0.00
2022-09-20T05:07:59.998Z,0.00
2022-09-20T05:09:00.117Z,0.00
2022-09-20T05:09:59.983Z,0.00
2022-09-20T05:10:59.970Z,0.00
2022-09-20T05:11:59.948Z,0.00
2022-09-20T05:12:59.933Z,0.00
2022-09-20T05:13:59.927Z,0.00
2022-09-20T05:14:59.924Z,0.00
2022-09-20T05:15:59.914Z,0.00
2022-09-20T05:16:59.996Z,0.00
2022-09-20T05:17:59.872Z,0.00
2022-09-20T05:18:59.861Z,0.00
2022-09-20T05:19:59.851Z,0.00
2022-09-20T05:20:59.837Z,0.00
2022-09-20T05:21:59.845Z,0.00
2022-09-20T05:22:59.816Z,0.00
2022-09-20T05:23:59.805Z,0.00
2022-09-20T05:24:59.799Z,0.00
2022-09-20T05:25:59.776Z,0.00
2022-09-20T05:26:59.762Z,0.00
2022-09-20T05:27:59.769Z,0.00
2022-09-20T05:28:59.751Z,0.00
2022-09-20T05:30:04.342Z,0.00
2022-09-20T05:30:59.720Z,0.00
2022-09-20T05:31:59.788Z,0.00
2022-09-20T05:32:59.684Z,0.00
2022-09-20T05:33:59.684Z,0.00
2022-09-20T05:34:59.661Z,0.00
2022-09-20T05:35:59.647Z,0.00
2022-09-20T05:36:59.636Z,0.00
2022-09-20T05:37:59.642Z,0.00
2022-09-20T05:39:02.830Z,0.00
2022-09-20T05:39:59.644Z,0.00
2022-09-20T05:40:59.598Z,0.00
2022-09-20T05:41:59.578Z,0.00
2022-09-20T05:42:59.572Z,0.00
2022-09-20T05:43:59.556Z,0.00
2022-09-20T05:44:59.536Z,0.00
2022-09-20T05:45:59.625Z,0.00
2022-09-20T05:46:59.516Z,0.00
2022-09-20T05:47:59.500Z,0.00
2022-09-20T05:48:59.491Z,0.00
2022-09-20T05:49:59.510Z,0.00
2022-09-20T05:51:03.102Z,0.00
2022-09-20T05:51:59.470Z,0.00
2022-09-20T05:52:59.443Z,0.00
2022-09-20T05:53:59.423Z,0.00
2022-09-20T05:54:59.414Z,0.00
2022-09-20T05:55:59.407Z,0.00
2022-09-20T05:56:59.408Z,5.62
2022-09-20T05:57:59.403Z,5.62
2022-09-20T05:58:59.383Z,5.62
2022-09-20T05:59:59.359Z,5.62
2022-09-20T06:00:59.357Z,5.62
2022-09-20T06:01:59.399Z,5.62
2022-09-20T06:02:59.317Z,5.62
2022-09-20T06:03:59.327Z,5.62
2022-09-20T06:04:59.304Z,5.62
2022-09-20T06:05:59.289Z,5.62
2022-09-20T06:06:59.281Z,5.62
2022-09-20T06:07:59.277Z,5.62
2022-09-20T06:08:59.243Z,5.62
2022-09-20T06:09:59.245Z,5.62
2022-09-20T06:10:59.225Z,5.62
2022-09-20T06:11:59.206Z,5.62
2022-09-20T06:12:59.217Z,5.62
2022-09-20T06:13:59.179Z,5.62
2022-09-20T06:14:59.176Z,5.62
2022-09-20T06:15:59.173Z,5.62
2022-09-20T06:16:59.144Z,5.62
2022-09-20T06:17:59.135Z,5.62
2022-09-20T06:18:59.118Z,5.62
2022-09-20T06:19:59.111Z,5.62
2022-09-20T06:20:59.096Z,5.62
2022-09-20T06:22:03.509Z,5.62
2022-09-20T06:22:59.077Z,5.62
2022-09-20T06:23:59.060Z,5.62
2022-09-20T06:24:59.039Z,5.62
2022-09-20T06:25:59.033Z,5.62
2022-09-20T06:26:59.049Z,5.62
2022-09-20T06:27:59.025Z,11.25
2022-09-20T06:28:58.993Z,11.25
2022-09-20T06:29:58.994Z,11.25
2022-09-20T06:30:59.007Z,11.25
2022-09-20T06:31:58.951Z,11.25
2022-09-20T06:32:58.950Z,11.25
2022-09-20T06:33:58.940Z,11.25
2022-09-20T06:34:58.925Z,11.25
2022-09-20T06:35:59.390Z,5.62
2022-09-20T06:36:58.900Z,5.62
2022-09-20T06:37:58.884Z,5.62
2022-09-20T06:38:58.871Z,5.62
2022-09-20T06:39:58.948Z,11.25
2022-09-20T06:40:58.853Z,11.25
2022-09-20T06:41:58.829Z,11.25
2022-09-20T06:42:58.818Z,11.25
2022-09-20T06:43:58.836Z,22.50
2022-09-20T06:44:58.813Z,22.50
2022-09-20T06:45:58.877Z,22.50
2022-09-20T06:46:58.775Z,22.50
2022-09-20T06:47:58.761Z,22.50
2022-09-20T06:48:58.744Z,22.50
2022-09-20T06:49:58.740Z,22.50
2022-09-20T06:50:58.727Z,22.50
2022-09-20T06:51:58.719Z,22.50
2022-09-20T06:52:58.701Z,22.50
2022-09-20T06:53:58.692Z,22.50
2022-09-20T06:54:58.689Z,22.50
2022-09-20T06:55:58.673Z,22.50
2022-09-20T06:56:58.647Z,22.50
2022-09-20T06:57:58.666Z,22.50
2022-09-20T06:58:58.619Z,22.50
2022-09-20T06:59:58.629Z,22.50
2022-09-20T07:00:58.614Z,22.50
2022-09-20T07:01:58.610Z,22.50
2022-09-20T07:02:58.622Z,22.50
2022-09-20T07:03:58.605Z,22.50
2022-09-20T07:04:58.547Z,22.50
2022-09-20T07:05:58.553Z,22.50
2022-09-20T07:06:58.521Z,22.50
2022-09-20T07:07:58.512Z,22.50
2022-09-20T07:08:58.500Z,22.50
2022-09-20T07:09:58.497Z,22.50
2022-09-20T07:10:58.472Z,22.50
2022-09-20T07:11:58.464Z,28.12
2022-09-20T07:12:58.450Z,28.12
2022-09-20T07:13:58.433Z,28.12
2022-09-20T07:14:58.421Z,28.12
2022-09-20T07:15:58.453Z,28.12
2022-09-20T07:16:58.398Z,28.12
2022-09-20T07:17:58.385Z,28.12
2022-09-20T07:18:58.372Z,33.75
2022-09-20T07:19:58.357Z,33.75
2022-09-20T07:20:58.356Z,33.75
2022-09-20T07:21:58.359Z,33.75
2022-09-20T07:22:58.328Z,28.12
2022-09-20T07:23:58.338Z,28.12
2022-09-20T07:24:58.294Z,28.12
2022-09-20T07:25:58.285Z,22.50
2022-09-20T07:26:58.267Z,22.50
2022-09-20T07:27:58.264Z,22.50
2022-09-20T07:28:58.243Z,22.50
2022-09-20T07:29:58.228Z,22.50
2022-09-20T07:30:58.227Z,22.50
2022-09-20T07:31:58.242Z,28.12
2022-09-20T07:32:58.196Z,28.12
2022-09-20T07:33:58.186Z,28.12
2022-09-20T07:34:58.170Z,28.12
2022-09-20T07:35:58.177Z,28.12
2022-09-20T07:36:58.157Z,33.75
2022-09-20T07:37:58.175Z,33.75
2022-09-20T07:38:58.112Z,33.75
2022-09-20T07:39:58.201Z,33.75
2022-09-20T07:40:58.098Z,33.75
2022-09-20T07:41:58.092Z,33.75
2022-09-20T07:42:58.084Z,33.75
2022-09-20T07:43:58.056Z,33.75
2022-09-20T07:44:58.049Z,33.75
2022-09-20T07:45:58.095Z,33.75
2022-09-20T07:46:58.022Z,33.75
2022-09-20T07:47:58.020Z,33.75
2022-09-20T07:48:57.998Z,33.75
2022-09-20T07:49:57.976Z,33.75
2022-09-20T07:50:57.974Z,33.75
2022-09-20T07:51:57.979Z,39.38
2022-09-20T07:52:57.957Z,39.38
2022-09-20T07:53:57.921Z,39.38
2022-09-20T07:54:57.915Z,39.38
2022-09-20T07:55:57.902Z,39.38
2022-09-20T07:56:57.891Z,33.75
2022-09-20T07:57:57.880Z,33.75
2022-09-20T07:58:57.860Z,33.75
2022-09-20T07:59:57.846Z,33.75
2022-09-20T08:00:57.889Z,33.75
2022-09-20T08:01:57.887Z,33.75
2022-09-20T08:02:57.812Z,33.75
2022-09-20T08:03:57.814Z,33.75
2022-09-20T08:04:57.797Z,33.75
2022-09-20T08:05:57.771Z,39.38
2022-09-20T08:06:57.759Z,39.38
2022-09-20T08:07:57.751Z,39.38
2022-09-20T08:08:57.736Z,39.38
2022-09-20T08:09:57.743Z,39.38
2022-09-20T08:10:57.715Z,33.75
2022-09-20T08:11:58.380Z,33.75
2022-09-20T08:14:13.111Z,39.38
2022-09-20T08:14:57.672Z,39.38
2022-09-20T08:15:57.676Z,33.75
2022-09-20T08:16:57.669Z,39.38
2022-09-20T08:17:57.628Z,39.38
2022-09-20T08:18:57.623Z,39.38
2022-09-20T08:19:57.608Z,39.38
2022-09-20T08:20:57.586Z,39.38
2022-09-20T08:21:57.600Z,39.38
2022-09-20T08:23:21.925Z,39.38
2022-09-20T08:23:57.568Z,39.38
2022-09-20T08:24:57.537Z,39.38
2022-09-20T08:25:57.546Z,39.38
2022-09-20T08:26:57.535Z,39.38
2022-09-20T08:27:57.515Z,39.38
2022-09-20T08:28:57.493Z,39.38
2022-09-20T08:29:57.474Z,39.38
2022-09-20T08:30:57.476Z,39.38
2022-09-20T08:31:57.469Z,39.38
2022-09-20T08:32:58.502Z,39.38
2022-09-20T08:33:57.864Z,39.38
2022-09-20T08:34:57.430Z,39.38
2022-09-20T08:35:57.909Z,39.38
2022-09-20T08:36:57.381Z,39.38
2022-09-20T08:37:57.561Z,33.75
2022-09-20T08:40:01.514Z,39.38
2022-09-20T08:40:06.532Z,39.38
2022-09-20T08:41:06.415Z,39.38
2022-09-20T08:42:06.389Z,39.38
2022-09-20T08:43:06.402Z,39.38
2022-09-20T08:44:06.583Z,39.38
2022-09-20T08:45:06.366Z,39.38
2022-09-20T08:46:06.437Z,39.38
2022-09-20T08:47:06.325Z,39.38
2022-09-20T08:48:06.319Z,39.38
2022-09-20T08:49:10.844Z,39.38
2022-09-20T08:50:17.620Z,39.38
2022-09-20T08:51:06.304Z,33.75
2022-09-20T08:52:10.293Z,33.75
2022-09-20T08:53:06.259Z,39.38
2022-09-20T08:54:06.240Z,39.38
2022-09-20T08:55:07.878Z,39.38
2022-09-20T08:56:06.217Z,39.38
2022-09-20T08:57:06.211Z,39.38
2022-09-20T08:58:08.869Z,39.38
2022-09-20T08:59:06.182Z,45.00
2022-09-20T09:00:06.170Z,45.00
2022-09-20T09:01:06.207Z,45.00
2022-09-20T09:02:06.173Z,45.00
2022-09-20T09:03:06.145Z,45.00
2022-09-20T09:04:06.204Z,45.00
2022-09-20T09:05:06.118Z,45.00
2022-09-20T09:06:11.190Z,45.00
2022-09-20T09:07:06.079Z,45.00
2022-09-20T09:08:06.071Z,45.00
2022-09-20T09:09:06.059Z,45.00
2022-09-20T09:10:06.038Z,45.00
2022-09-20T09:11:06.043Z,50.62
2022-09-20T09:12:06.019Z,50.62
2022-09-20T09:13:06.011Z,50.62
2022-09-20T09:14:05.998Z,50.62
2022-09-20T09:15:05.994Z,45.00
2022-09-20T09:16:05.969Z,45.00
2022-09-20T09:17:06.048Z,50.62
2022-09-20T09:18:05.945Z,50.62
2022-09-20T09:19:06.130Z,50.62
2022-09-20T09:20:05.928Z,50.62
2022-09-20T09:21:05.927Z,50.62
2022-09-20T09:22:05.898Z,50.62
2022-09-20T09:23:05.882Z,50.62
2022-09-20T09:24:05.865Z,50.62
2022-09-20T09:25:05.881Z,50.62
2022-09-20T09:26:05.848Z,50.62
2022-09-20T09:27:05.849Z,56.25
2022-09-20T09:28:05.824Z,50.62
2022-09-20T09:29:05.815Z,56.25
2022-09-20T09:30:05.799Z,56.25
2022-09-20T09:31:05.839Z,56.25
2022-09-20T09:32:05.819Z,56.25
2022-09-20T09:33:05.778Z,56.25
2022-09-20T09:34:05.819Z,56.25
2022-09-20T09:35:05.734Z,56.25
2022-09-20T09:36:05.716Z,56.25
2022-09-20T09:37:05.831Z,50.62
2022-09-20T09:38:05.694Z,50.62
2022-09-20T09:39:05.703Z,45.00
2022-09-20T09:40:06.449Z,45.00
2022-09-20T09:41:05.681Z,39.38
2022-09-20T09:42:05.642Z,33.75
2022-09-20T09:43:05.645Z,33.75
2022-09-20T09:44:05.626Z,33.75
2022-09-20T09:45:05.857Z,33.75
2022-09-20T09:46:05.683Z,39.38
2022-09-20T09:47:05.584Z,39.38
2022-09-20T09:48:05.589Z,39.38
2022-09-20T09:49:08.525Z,33.75
2022-09-20T09:50:09.657Z,33.75
2022-09-20T09:51:05.646Z,33.75
2022-09-20T09:52:05.526Z,33.75
2022-09-20T09:53:05.620Z,39.38
2022-09-20T09:54:05.503Z,39.38
2022-09-20T09:55:06.280Z,39.38
2022-09-20T09:56:05.473Z,45.00
2022-09-20T09:57:05.482Z,45.00
2022-09-20T09:58:05.444Z,50.62
2022-09-20T09:59:05.433Z,50.62
2022-09-20T10:00:13.310Z,50.62
2022-09-20T10:01:05.483Z,56.25
2022-09-20T10:02:05.472Z,56.25
2022-09-20T10:03:05.425Z,56.25
2022-09-20T10:04:05.471Z,61.88
2022-09-20T10:05:06.334Z,61.88
2022-09-20T10:06:05.350Z,56.25
2022-09-20T10:07:05.343Z,56.25
2022-09-20T10:08:05.324Z,56.25
2022-09-20T10:09:05.363Z,56.25
2022-09-20T10:10:05.605Z,50.62
2022-09-20T10:11:05.284Z,45.00
2022-09-20T10:12:05.284Z,50.62
2022-09-20T10:13:05.273Z,45.00
2022-09-20T10:14:05.281Z,39.38
2022-09-20T10:15:06.221Z,39.38
2022-09-20T10:16:05.270Z,39.38
2022-09-20T10:17:05.221Z,33.75
2022-09-20T10:18:05.208Z,33.75
2022-09-20T10:19:05.281Z,33.75
2022-09-20T10:20:05.196Z,28.12
2022-09-20T10:21:05.219Z,28.12
2022-09-20T10:22:05.160Z,28.12
2022-09-20T10:23:39.276Z,28.12
2022-09-20T10:24:05.258Z,28.12
2022-09-20T10:25:05.132Z,28.12
2022-09-20T10:26:05.111Z,33.75
2022-09-20T10:27:05.118Z,33.75
2022-09-20T10:28:05.084Z,33.75
2022-09-20T10:29:05.063Z,28.12
2022-09-20T10:30:05.064Z,28.12
2022-09-20T10:31:05.175Z,33.75
2022-09-20T10:32:05.033Z,33.75
2022-09-20T10:33:05.050Z,33.75
2022-09-20T10:34:05.099Z,33.75
2022-09-20T10:35:04.999Z,33.75
2022-09-20T10:36:04.985Z,33.75
2022-09-20T10:37:05.021Z,39.38
2022-09-20T10:38:04.973Z,39.38
2022-09-20T10:39:04.997Z,39.38
2022-09-20T10:40:04.992Z,45.00
2022-09-20T10:41:04.924Z,45.00
2022-09-20T10:42:04.917Z,45.00
2022-09-20T10:43:04.894Z,45.00
2022-09-20T10:44:05.834Z,45.00
2022-09-20T10:45:04.902Z,45.00
2022-09-20T10:46:30.342Z,45.00
2022-09-20T10:47:04.896Z,50.62
2022-09-20T10:48:04.839Z,50.62
2022-09-20T10:49:04.988Z,56.25
2022-09-20T10:50:04.813Z,61.88
2022-09-20T10:51:04.804Z,61.88
2022-09-20T10:52:04.788Z,67.50
2022-09-20T10:53:04.795Z,61.88
2022-09-20T10:54:04.756Z,61.88
2022-09-20T10:55:04.748Z,61.88
2022-09-20T10:56:04.735Z,67.50
2022-09-20T10:57:04.732Z,67.50
2022-09-20T10:58:04.708Z,67.50
2022-09-20T10:59:04.722Z,67.50
2022-09-20T11:00:04.695Z,61.88
2022-09-20T11:01:04.716Z,67.50
2022-09-20T11:02:04.698Z,61.88
2022-09-20T11:03:04.669Z,61.88
2022-09-20T11:04:04.739Z,61.88
2022-09-20T11:05:04.630Z,61.88
2022-09-20T11:06:04.613Z,67.50
2022-09-20T11:07:04.601Z,67.50
2022-09-20T11:08:04.587Z,67.50
2022-09-20T11:09:04.589Z,73.12
2022-09-20T11:10:04.580Z,73.12
2022-09-20T11:11:04.568Z,67.50
2022-09-20T11:12:04.546Z,67.50
2022-09-20T11:13:04.524Z,67.50
2022-09-20T11:14:04.514Z,67.50
2022-09-20T11:15:04.516Z,67.50
2022-09-20T11:16:04.584Z,67.50
2022-09-20T11:17:04.492Z,67.50
2022-09-20T11:18:04.471Z,67.50
2022-09-20T11:19:04.599Z,67.50
2022-09-20T11:20:07.404Z,73.12
2022-09-20T11:21:04.468Z,67.50
2022-09-20T11:22:04.418Z,67.50
2022-09-20T11:23:04.413Z,61.88
2022-09-20T11:24:04.386Z,61.88
2022-09-20T11:25:04.395Z,67.50
2022-09-20T11:26:04.364Z,61.88
2022-09-20T11:27:04.373Z,61.88
2022-09-20T11:28:04.343Z,56.25
2022-09-20T11:29:04.340Z,56.25
2022-09-20T11:30:04.344Z,56.25
2022-09-20T11:31:04.301Z,61.88
2022-09-20T11:32:04.374Z,61.88
2022-09-20T11:33:04.291Z,56.25
2022-09-20T11:34:04.262Z,56.25
2022-09-20T11:35:04.276Z,50.62
2022-09-20T11:36:05.203Z,45.00
2022-09-20T11:37:04.235Z,45.00
2022-09-20T11:38:04.233Z,45.00
2022-09-20T11:39:04.228Z,50.62
2022-09-20T11:40:04.239Z,50.62
2022-09-20T11:41:04.176Z,50.62
2022-09-20T11:42:04.164Z,50.62
2022-09-20T11:43:04.170Z,50.62
2022-09-20T11:44:04.153Z,50.62
2022-09-20T11:45:04.142Z,45.00
2022-09-20T11:46:04.167Z,45.00
2022-09-20T11:47:04.102Z,45.00
2022-09-20T11:48:04.114Z,45.00
2022-09-20T11:49:04.087Z,39.38
2022-09-20T11:50:04.076Z,39.38
2022-09-20T11:51:04.063Z,39.38
2022-09-20T11:52:04.043Z,39.38
2022-09-20T11:53:04.024Z,39.38
2022-09-20T11:54:04.023Z,45.00
2022-09-20T11:55:04.008Z,39.38
2022-09-20T11:56:03.987Z,45.00
2022-09-20T11:57:04.006Z,50.62
2022-09-20T11:58:03.968Z,50.62
2022-09-20T11:59:03.963Z,50.62
2022-09-20T12:00:03.938Z,50.62
2022-09-20T12:01:03.933Z,45.00
2022-09-20T12:02:04.065Z,50.62
2022-09-20T12:03:04.068Z,50.62
2022-09-20T12:04:30.752Z,45.00
2022-09-20T12:05:03.882Z,39.38
2022-09-20T12:06:03.861Z,39.38
2022-09-20T12:07:08.995Z,39.38
2022-09-20T12:08:03.860Z,33.75
2022-09-20T12:09:03.858Z,39.38
2022-09-20T12:10:03.812Z,33.75
2022-09-20T12:11:03.833Z,33.75
2022-09-20T12:12:03.801Z,28.12
2022-09-20T12:13:03.782Z,28.12
2022-09-20T12:14:03.775Z,28.12
2022-09-20T12:15:03.782Z,33.75
2022-09-20T12:16:03.825Z,33.75
2022-09-20T12:17:03.728Z,33.75
2022-09-20T12:18:08.926Z,33.75
2022-09-20T12:19:03.712Z,33.75
2022-09-20T12:20:03.692Z,33.75
2022-09-20T12:21:03.697Z,33.75
2022-09-20T12:22:03.668Z,33.75
2022-09-20T12:23:03.656Z,33.75
2022-09-20T12:24:03.693Z,39.38
2022-09-20T12:25:03.640Z,39.38
2022-09-20T12:26:03.635Z,45.00
2022-09-20T12:27:03.624Z,45.00
2022-09-20T12:28:03.593Z,50.62
2022-09-20T12:29:03.583Z,45.00
2022-09-20T12:30:03.568Z,45.00
2022-09-20T12:31:03.577Z,56.25
2022-09-20T12:32:03.685Z,50.62
2022-09-20T12:33:03.559Z,50.62
2022-09-20T12:34:03.512Z,61.88
2022-09-20T12:35:03.502Z,67.50
2022-09-20T12:36:03.542Z,73.12
2022-09-20T12:37:03.475Z,78.75
2022-09-20T12:38:03.469Z,78.75
2022-09-20T12:39:03.479Z,78.75
2022-09-20T12:40:03.475Z,78.75
2022-09-20T12:41:03.428Z,78.75
2022-09-20T12:42:03.442Z,84.38
2022-09-20T12:43:03.406Z,84.38
2022-09-20T12:44:03.401Z,73.12
2022-09-20T12:45:03.426Z,78.75
2022-09-20T12:46:07.444Z,95.62
2022-09-20T12:47:03.352Z,78.75
2022-09-20T12:48:03.348Z,78.75
2022-09-20T12:49:03.330Z,84.38
2022-09-20T12:50:03.318Z,84.38
2022-09-20T12:51:03.325Z,84.38
2022-09-20T12:52:03.307Z,78.75
2022-09-20T12:53:03.281Z,84.38
2022-09-20T12:54:03.267Z,84.38
2022-09-20T12:55:06.558Z,78.75
2022-09-20T12:56:03.256Z,78.75
2022-09-20T12:57:03.256Z,78.75
2022-09-20T12:58:03.233Z,78.75
2022-09-20T12:59:03.211Z,67.50
2022-09-20T13:00:03.182Z,61.88
2022-09-20T13:01:03.231Z,56.25
2022-09-20T13:02:03.205Z,50.62
2022-09-20T13:03:03.169Z,50.62
2022-09-20T13:04:03.135Z,56.25
2022-09-20T13:05:03.124Z,50.62
2022-09-20T13:06:03.113Z,78.75